Time;durP1;ratioP1;P1;durP2;ratioP2;P2;SDS_P1;SDS_P2;PMS_P1;PMS_P2;Temp;Humidity;BMP_temperature;BMP_pressure;BME280_temperature;BME280_humidity;BME280_pressure;Samples;Min_cycle;Max_cycle;Signal;HPM_P1;HPM_P2
2023/05/15 00:01:46;;;;;;;4.30;1.48;;;;;;;20.99;53.13;101075.00;5051630;28;20025;-42
2023/05/15 00:04:12;;;;;;;2.50;1.23;;;;;;;21.01;52.56;101078.28;5069033;28;20453;-42
2023/05/15 00:06:38;;;;;;;4.43;1.38;;;;;;;20.78;53.45;101082.31;5071938;28;20112;-41
2023/05/15 00:09:04;;;;;;;2.65;1.50;;;;;;;20.73;53.31;101077.66;5067934;28;20500;-42
2023/05/15 00:11:30;;;;;;;2.63;1.38;;;;;;;20.61;54.80;101079.00;5044369;28;20397;-41
2023/05/15 00:13:57;;;;;;;5.65;1.70;;;;;;;20.43;54.58;101075.66;5038793;28;20467;-42
2023/05/15 00:16:23;;;;;;;3.08;1.30;;;;;;;20.54;53.55;101082.78;5048498;28;20108;-41
2023/05/15 00:18:50;;;;;;;4.40;1.63;;;;;;;20.58;54.19;101076.78;5039727;28;20021;-40
2023/05/15 00:21:16;;;;;;;2.90;1.50;;;;;;;20.67;55.03;101081.47;5041322;28;20666;-40
2023/05/15 00:23:42;;;;;;;5.22;2.03;;;;;;;20.58;55.53;101077.63;5044411;28;20035;-41
2023/05/15 00:26:08;;;;;;;2.95;1.25;;;;;;;20.48;54.87;101078.38;5038300;28;20359;-41
2023/05/15 00:28:35;;;;;;;2.08;1.33;;;;;;;20.45;54.79;101078.09;5042258;28;20025;-41
2023/05/15 00:31:01;;;;;;;3.38;1.20;;;;;;;20.49;54.47;101076.50;5053303;28;20020;-42
2023/05/15 00:33:27;;;;;;;5.72;2.38;;;;;;;20.30;55.54;101090.53;5040174;28;20508;-42
2023/05/15 00:35:53;;;;;;;2.60;1.38;;;;;;;20.21;55.21;101088.56;5036916;28;20061;-41
2023/05/15 00:38:19;;;;;;;5.43;1.45;;;;;;;20.22;56.39;101095.66;5049073;28;20022;-40
2023/05/15 00:40:46;;;;;;;2.80;1.25;;;;;;;20.11;56.70;101093.97;5051504;28;20017;-40
2023/05/15 00:43:13;;;;;;;2.35;1.20;;;;;;;20.08;55.99;101100.72;5045880;28;20032;-43
2023/05/15 00:45:41;;;;;;;4.28;1.65;;;;;;;19.92;56.00;101105.25;5049457;28;20031;-43
2023/05/15 00:48:09;;;;;;;3.90;1.33;;;;;;;19.80;56.52;101096.47;5045723;28;20025;-42
2023/05/15 00:50:36;;;;;;;4.82;1.23;;;;;;;19.78;57.05;101106.78;5038100;28;20021;-40
2023/05/15 00:53:03;;;;;;;3.83;1.30;;;;;;;19.47;57.41;101111.94;5051146;28;20049;-40
2023/05/15 00:55:31;;;;;;;2.03;1.35;;;;;;;19.32;58.27;101105.56;5055229;28;20513;-40
2023/05/15 00:57:59;;;;;;;6.80;1.70;;;;;;;19.38;57.89;101113.50;5045249;28;20502;-42
2023/05/15 01:00:26;;;;;;;2.75;1.40;;;;;;;19.18;58.54;101108.69;5034661;28;20083;-41
2023/05/15 01:02:53;;;;;;;4.25;1.50;;;;;;;19.23;58.80;101111.47;5034035;28;20042;-41
2023/05/15 01:05:19;;;;;;;3.65;1.20;;;;;;;19.17;58.72;101108.97;5059485;28;20017;-44
2023/05/15 01:07:59;;;;;;;2.65;1.20;;;;;;;19.16;58.31;101120.91;5054632;28;20025;-43
2023/05/15 01:10:25;;;;;;;2.33;1.30;;;;;;;19.09;59.19;101128.41;5042721;28;20041;-43
2023/05/15 01:12:54;;;;;;;3.95;1.55;;;;;;;19.01;59.54;101128.88;5034460;28;20034;-42
2023/05/15 01:15:21;;;;;;;1.95;1.40;;;;;;;18.89;59.25;101134.44;5055162;28;20103;-41
2023/05/15 01:17:47;;;;;;;3.38;1.40;;;;;;;18.83;59.78;101132.75;5074498;28;20062;-43
2023/05/15 01:20:17;;;;;;;3.22;1.25;;;;;;;18.91;60.17;101138.53;5050513;28;20057;-43
2023/05/15 01:22:52;;;;;;;2.13;1.48;;;;;;;18.68;60.05;101142.31;5047366;28;20112;-43
2023/05/15 01:25:53;;;;;;;2.97;1.30;;;;;;;18.66;61.19;101143.63;5060970;28;20541;-42
2023/05/15 01:28:51;;;;;;;1.63;1.10;;;;;;;18.80;61.15;101141.38;5055425;28;20040;-42
2023/05/15 01:31:23;;;;;;;3.38;1.42;;;;;;;18.86;61.42;101143.06;5032947;28;20037;-42
2023/05/15 01:33:58;;;;;;;4.07;1.42;;;;;;;18.75;60.79;101144.03;5033359;28;20037;-44
2023/05/15 01:36:30;;;;;;;;;;;;;;;18.93;60.58;101151.81;5046898;28;20033;-42
2023/05/15 01:38:59;;;;;;;2.17;1.40;;;;;;;18.71;61.10;101146.41;5033855;28;19915;-42
2023/05/15 01:41:31;;;;;;;1.35;1.00;;;;;;;18.85;60.92;101142.25;5033837;28;20061;-44
2023/05/15 01:44:10;;;;;;;4.22;1.65;;;;;;;18.76;61.10;101138.34;5033310;28;20087;-42
2023/05/15 01:46:41;;;;;;;2.97;1.30;;;;;;;18.82;60.67;101147.34;5034309;28;20037;-42
2023/05/15 01:49:10;;;;;;;3.03;1.42;;;;;;;19.01;60.93;101145.97;5033597;28;20021;-42
2023/05/15 01:51:38;;;;;;;3.35;1.42;;;;;;;18.98;60.04;101144.56;5033337;28;20040;-46
2023/05/15 01:54:08;;;;;;;2.50;1.40;;;;;;;18.99;60.21;101143.50;5043898;28;20053;-43
2023/05/15 01:56:35;;;;;;;2.58;1.35;;;;;;;18.95;60.17;101142.38;5059300;28;20021;-45
2023/05/15 01:59:03;;;;;;;2.53;1.23;;;;;;;18.91;60.63;101140.41;5073433;28;20063;-42
2023/05/15 02:01:32;;;;;;;2.65;1.52;;;;;;;18.79;60.36;101137.84;5073535;28;20032;-42
2023/05/15 02:04:01;;;;;;;4.93;1.80;;;;;;;18.73;61.01;101145.09;5072991;28;20027;-43
2023/05/15 02:06:28;;;;;;;4.53;1.52;;;;;;;18.68;61.10;101153.16;5072510;28;20437;-43
2023/05/15 02:08:57;;;;;;;4.13;1.70;;;;;;;18.59;61.32;101159.25;5073206;28;20427;-42
2023/05/15 02:11:23;;;;;;;6.57;1.70;;;;;;;18.38;62.57;101159.00;5041213;28;20037;-41
2023/05/15 02:13:50;;;;;;;3.45;1.98;;;;;;;18.22;62.49;101161.75;5039571;28;20100;-42
2023/05/15 02:16:17;;;;;;;3.35;1.90;;;;;;;18.23;62.70;101160.66;5053216;28;20021;-42
2023/05/15 02:18:43;;;;;;;2.17;1.20;;;;;;;18.19;62.49;101160.31;5053769;28;20083;-42
2023/05/15 02:21:09;;;;;;;4.75;1.70;;;;;;;17.97;63.66;101157.56;5052932;28;20029;-43
2023/05/15 02:23:36;;;;;;;2.90;1.60;;;;;;;17.78;63.93;101150.78;5045984;28;20075;-42
2023/05/15 02:26:27;;;;;;;3.60;2.47;;;;;;;17.87;63.74;101152.78;5051170;28;20029;-42
2023/05/15 02:29:21;;;;;;;3.15;1.95;;;;;;;17.67;64.87;101158.69;5048511;28;20115;-42
2023/05/15 02:32:01;;;;;;;2.47;1.52;;;;;;;17.65;64.82;101159.97;5069777;28;20416;-43
2023/05/15 02:34:36;;;;;;;3.40;1.52;;;;;;;17.64;64.93;101161.88;5072998;28;20036;-42
2023/05/15 02:37:07;;;;;;;3.85;1.50;;;;;;;17.43;65.24;101165.28;5073113;28;20029;-42
2023/05/15 02:39:34;;;;;;;2.85;1.40;;;;;;;17.46;65.79;101170.22;5073115;28;20028;-42
2023/05/15 02:42:01;;;;;;;5.68;2.20;;;;;;;17.38;66.16;101173.34;5071604;28;20031;-41
2023/05/15 02:44:28;;;;;;;4.25;1.30;;;;;;;17.53;65.20;101170.88;5047511;28;20032;-43
2023/05/15 02:46:54;;;;;;;2.25;1.20;;;;;;;17.42;65.91;101171.78;5031400;28;20159;-44
2023/05/15 02:49:22;;;;;;;2.45;1.52;;;;;;;17.44;65.90;101177.78;5033234;28;20030;-42
2023/05/15 02:51:48;;;;;;;2.55;1.40;;;;;;;17.43;65.82;101186.94;5032815;28;20033;-44
2023/05/15 02:54:14;;;;;;;2.72;1.60;;;;;;;17.22;66.65;101185.75;5064010;28;20040;-44
2023/05/15 02:56:41;;;;;;;2.45;1.50;;;;;;;17.32;66.18;101194.06;5072430;28;20032;-43
2023/05/15 02:59:07;;;;;;;4.35;1.70;;;;;;;17.20;66.82;101189.75;5072679;28;20491;-45
2023/05/15 03:01:33;;;;;;;2.65;1.50;;;;;;;17.24;66.30;101196.31;5059241;28;20055;-43
2023/05/15 03:03:59;;;;;;;2.97;1.60;;;;;;;16.91;67.83;101192.44;5053225;28;20024;-43
2023/05/15 03:06:25;;;;;;;3.65;1.65;;;;;;;16.78;68.48;101193.53;5072492;28;20539;-44
2023/05/15 03:08:52;;;;;;;3.83;1.85;;;;;;;16.78;68.48;101204.34;5071111;28;20358;-42
2023/05/15 03:11:19;;;;;;;4.30;1.90;;;;;;;16.68;68.46;101203.28;5052237;28;20052;-42
2023/05/15 03:13:45;;;;;;;4.63;1.70;;;;;;;16.62;68.55;101211.28;5052102;28;20057;-42
2023/05/15 03:16:12;;;;;;;4.63;2.08;;;;;;;16.32;69.79;101202.47;5052254;28;20075;-42
2023/05/15 03:18:38;;;;;;;5.90;2.08;;;;;;;16.33;70.34;101214.94;5045361;28;20021;-42
2023/05/15 03:21:04;;;;;;;4.50;2.10;;;;;;;16.28;70.59;101212.94;5034933;28;20375;-43
2023/05/15 03:23:31;;;;;;;4.88;1.70;;;;;;;16.41;69.75;101222.69;5031740;28;20029;-46
2023/05/15 03:25:57;;;;;;;2.92;1.65;;;;;;;16.45;70.07;101221.16;5041389;28;20029;-46
2023/05/15 03:28:23;;;;;;;4.38;2.20;;;;;;;16.40;70.10;101228.31;5040702;28;20029;-45
2023/05/15 03:30:50;;;;;;;4.60;2.03;;;;;;;16.43;69.74;101231.34;5051738;28;20032;-43
2023/05/15 03:33:16;;;;;;;4.05;1.92;;;;;;;16.17;70.62;101226.44;5051372;28;20381;-43
2023/05/15 03:35:43;;;;;;;3.80;2.25;;;;;;;16.13;71.03;101236.06;5042620;28;20064;-43
2023/05/15 03:38:09;;;;;;;3.83;2.35;;;;;;;16.09;71.64;101233.00;5031583;28;20095;-46
2023/05/15 03:40:40;;;;;;;6.40;2.42;;;;;;;15.86;72.31;101231.06;5031386;28;20025;-43
2023/05/15 03:43:06;;;;;;;4.68;2.17;;;;;;;16.00;71.92;101245.19;5031445;28;20026;-42
2023/05/15 03:45:36;;;;;;;4.43;2.05;;;;;;;15.91;72.25;101252.78;5046009;28;20045;-43
2023/05/15 03:48:02;;;;;;;6.00;2.20;;;;;;;15.89;72.48;101248.69;5051657;28;20025;-43
2023/05/15 03:50:29;;;;;;;4.28;2.13;;;;;;;15.80;72.66;101259.00;5051442;28;20025;-46
2023/05/15 03:52:55;;;;;;;7.70;2.70;;;;;;;15.91;72.20;101251.97;5051030;28;20136;-43
2023/05/15 03:55:21;;;;;;;3.13;2.20;;;;;;;15.84;72.52;101261.00;5055317;28;20072;-43
2023/05/15 03:57:47;;;;;;;4.68;2.13;;;;;;;15.85;72.67;101261.81;5037959;28;20030;-45
2023/05/15 04:00:14;;;;;;;4.30;2.50;;;;;;;15.78;72.41;101263.81;5031084;28;20067;-42
2023/05/15 04:02:40;;;;;;;4.93;2.03;;;;;;;15.78;72.19;101269.19;5031398;28;20022;-42
2023/05/15 04:05:07;;;;;;;3.83;2.10;;;;;;;15.86;72.51;101274.25;5031286;28;20032;-43
2023/05/15 04:07:35;;;;;;;2.83;2.38;;;;;;;15.67;73.07;101264.59;5069701;28;20480;-43
2023/05/15 04:10:01;;;;;;;4.38;2.40;;;;;;;15.68;73.08;101268.94;5071291;28;20035;-42
2023/05/15 04:12:29;;;;;;;4.25;2.40;;;;;;;15.69;73.22;101265.16;5070786;28;20108;-42
2023/05/15 04:14:58;;;;;;;2.60;1.95;;;;;;;15.59;73.72;101265.69;5046233;28;20026;-42
2023/05/15 04:17:24;;;;;;;3.30;1.90;;;;;;;15.70;72.84;101267.63;5062609;28;20064;-42
2023/05/15 04:19:50;;;;;;;4.03;2.10;;;;;;;15.62;73.56;101283.31;5071080;28;20035;-42
2023/05/15 04:22:17;;;;;;;4.72;2.30;;;;;;;15.61;73.37;101285.19;5070841;28;20070;-42
2023/05/15 04:24:43;;;;;;;2.72;1.92;;;;;;;15.49;74.20;101281.59;5071301;28;20496;-42
2023/05/15 04:27:09;;;;;;;5.57;2.22;;;;;;;15.57;73.70;101290.22;5061234;28;20068;-46
2023/05/15 04:29:36;;;;;;;4.15;2.10;;;;;;;15.61;73.13;101285.19;5051026;28;20519;-43
2023/05/15 04:32:02;;;;;;;2.70;2.15;;;;;;;15.59;73.63;101288.09;5050572;28;20450;-46
2023/05/15 04:34:28;;;;;;;4.57;2.55;;;;;;;15.56;73.82;101295.84;5050971;28;20047;-42
2023/05/15 04:36:55;;;;;;;5.97;2.38;;;;;;;15.69;73.56;101297.56;5051345;28;20025;-43
2023/05/15 04:39:21;;;;;;;3.83;2.17;;;;;;;15.70;72.89;101304.59;5071074;28;20028;-42
2023/05/15 04:41:47;;;;;;;2.88;2.30;;;;;;;15.51;73.83;101306.47;5070613;28;20020;-45
2023/05/15 04:44:13;;;;;;;3.50;2.08;;;;;;;15.49;74.11;101312.13;5071094;28;20017;-42
2023/05/15 04:46:40;;;;;;;4.07;2.05;;;;;;;15.45;73.90;101310.91;5039493;28;20042;-44
2023/05/15 04:49:06;;;;;;;3.10;1.90;;;;;;;15.30;74.71;101315.88;5067717;28;20123;-43
2023/05/15 04:51:32;;;;;;;3.55;2.13;;;;;;;15.33;75.05;101318.13;5070853;28;20063;-41
2023/05/15 04:53:59;;;;;;;3.38;1.92;;;;;;;15.36;74.47;101319.53;5070552;28;20048;-42
2023/05/15 04:56:25;;;;;;;3.70;2.40;;;;;;;15.36;74.66;101330.31;5044556;28;20500;-44
2023/05/15 04:58:51;;;;;;;4.80;2.38;;;;;;;15.36;74.64;101327.63;5057985;28;20119;-44
2023/05/15 05:01:17;;;;;;;3.45;2.33;;;;;;;15.26;75.15;101331.66;5070930;28;20284;-43
2023/05/15 05:03:43;;;;;;;3.53;3.22;;;;;;;15.28;75.29;101326.06;5070708;28;20070;-44
2023/05/15 05:06:10;;;;;;;3.42;2.40;;;;;;;15.15;75.62;101336.97;5070641;28;20071;-43
2023/05/15 05:08:36;;;;;;;2.58;2.20;;;;;;;15.13;75.93;101329.13;5059827;28;20473;-42
2023/05/15 05:11:02;;;;;;;3.53;2.72;;;;;;;15.12;76.08;101332.06;5053655;28;20084;-43
2023/05/15 05:13:29;;;;;;;6.32;2.33;;;;;;;15.02;76.61;101330.69;5035150;28;20036;-42
2023/05/15 05:15:55;;;;;;;3.20;1.65;;;;;;;15.07;75.99;101342.69;5066421;28;20067;-45
2023/05/15 05:18:21;;;;;;;3.40;2.00;;;;;;;15.11;76.22;101339.31;5051184;28;20026;-42
2023/05/15 05:20:48;;;;;;;4.32;2.15;;;;;;;15.01;76.69;101344.41;5074241;28;20174;-43
2023/05/15 05:23:14;;;;;;;3.35;1.80;;;;;;;14.90;77.91;101347.81;5073749;28;20465;-43
2023/05/15 05:25:41;;;;;;;5.25;2.00;;;;;;;14.83;78.53;101350.59;5072694;28;20024;-43
2023/05/15 05:28:07;;;;;;;3.45;2.10;;;;;;;14.74;78.61;101352.72;5067054;28;20032;-43
2023/05/15 05:30:34;;;;;;;2.40;1.70;;;;;;;14.84;78.27;101346.03;5073352;28;20500;-42
2023/05/15 05:33:00;;;;;;;2.13;1.52;;;;;;;14.71;78.97;101355.88;5073695;28;20037;-42
2023/05/15 05:35:27;;;;;;;3.00;1.58;;;;;;;14.77;78.76;101364.94;5046502;28;20099;-42
2023/05/15 05:37:53;;;;;;;4.88;1.90;;;;;;;14.82;78.20;101361.56;5033868;28;20042;-42
2023/05/15 05:40:19;;;;;;;2.15;1.50;;;;;;;14.81;78.50;101358.06;5056336;28;20496;-45
2023/05/15 05:42:45;;;;;;;3.03;1.55;;;;;;;14.84;78.45;101352.22;5073490;28;20033;-42
2023/05/15 05:45:11;;;;;;;4.40;1.90;;;;;;;14.95;78.00;101350.69;5073804;28;20105;-43
2023/05/15 05:47:38;;;;;;;5.55;1.38;;;;;;;14.88;78.00;101358.00;5073676;28;20056;-45
2023/05/15 05:50:05;;;;;;;2.88;1.67;;;;;;;14.91;77.50;101352.16;5067476;28;20399;-45
2023/05/15 05:52:31;;;;;;;2.10;1.38;;;;;;;15.02;76.96;101359.53;5047212;28;20025;-43
2023/05/15 05:54:58;;;;;;;3.33;1.58;;;;;;;14.98;77.65;101364.53;5073679;28;20059;-43
2023/05/15 05:57:24;;;;;;;1.80;1.38;;;;;;;14.86;78.01;101369.00;5072605;28;20036;-43
2023/05/15 05:59:50;;;;;;;3.47;1.40;;;;;;;14.77;78.23;101370.34;5053517;28;20033;-43
2023/05/15 06:02:17;;;;;;;3.35;1.30;;;;;;;14.90;77.58;101370.22;5039457;28;20028;-42
2023/05/15 06:04:45;;;;;;;4.45;1.33;;;;;;;14.80;78.14;101375.28;5034241;28;20053;-42
2023/05/15 06:07:11;;;;;;;1.45;1.20;;;;;;;14.82;78.11;101378.56;5041310;28;20021;-42
2023/05/15 06:09:38;;;;;;;2.67;1.50;;;;;;;14.80;77.90;101375.28;5034423;28;20075;-41
2023/05/15 06:12:06;;;;;;;1.42;1.10;;;;;;;14.78;78.47;101372.81;5047985;28;20041;-41
2023/05/15 06:14:33;;;;;;;5.68;1.58;;;;;;;14.75;78.37;101367.84;5043466;28;20044;-45
2023/05/15 06:17:00;;;;;;;1.73;1.30;;;;;;;14.83;78.08;101369.47;5033074;28;20087;-43
2023/05/15 06:19:26;;;;;;;2.45;1.30;;;;;;;14.83;77.97;101366.75;5101548;23;20063;-44
2023/05/15 06:21:53;;;;;;;1.60;1.02;;;;;;;14.87;77.56;101367.94;5112730;28;20035;-43
2023/05/15 06:24:19;;;;;;;3.15;1.00;;;;;;;14.86;77.36;101371.69;5112815;28;20058;-41
2023/05/15 06:26:45;;;;;;;1.75;1.23;;;;;;;14.91;77.05;101368.34;5092924;28;20135;-41
2023/05/15 06:29:12;;;;;;;1.35;1.08;;;;;;;14.91;77.11;101366.47;5093390;28;20028;-43
2023/05/15 06:31:38;;;;;;;2.03;1.27;;;;;;;15.03;76.91;101374.66;5092904;28;20028;-43
2023/05/15 06:34:05;;;;;;;1.50;1.30;;;;;;;14.98;77.56;101372.59;5093008;28;20426;-48
2023/05/15 06:36:31;;;;;;;4.70;1.30;;;;;;;15.05;76.65;101372.56;5090696;28;20055;-42
2023/05/15 06:38:57;;;;;;;1.67;1.25;;;;;;;15.11;76.94;101373.56;5082517;28;20524;-42
2023/05/15 06:41:23;;;;;;;2.22;1.30;;;;;;;14.97;77.08;101368.28;5081813;28;20384;-42
2023/05/15 06:43:50;;;;;;;2.40;1.20;;;;;;;14.89;77.89;101362.34;5092801;28;20020;-42
2023/05/15 06:46:17;;;;;;;3.58;1.40;;;;;;;14.93;77.73;101361.66;5092834;28;20044;-43
2023/05/15 06:48:44;;;;;;;1.23;1.10;;;;;;;14.95;77.50;101362.28;5091606;28;20020;-42
2023/05/15 06:51:11;;;;;;;2.47;1.33;;;;;;;15.04;77.24;101370.91;5092240;28;20055;-42
2023/05/15 06:53:37;;;;;;;2.53;1.15;;;;;;;14.96;77.89;101369.31;5092763;28;20024;-42
2023/05/15 06:56:03;;;;;;;1.63;1.30;;;;;;;14.89;78.13;101368.56;5092843;28;20028;-43
2023/05/15 06:58:29;;;;;;;2.17;1.20;;;;;;;14.95;78.08;101369.56;5092387;28;20027;-42
2023/05/15 07:00:55;;;;;;;2.42;1.45;;;;;;;15.02;77.08;101363.03;5090310;28;20028;-43
2023/05/15 07:03:22;;;;;;;2.17;1.13;;;;;;;15.00;77.91;101367.84;5092215;28;20054;-43
2023/05/15 07:05:48;;;;;;;3.80;1.30;;;;;;;14.88;77.96;101372.31;5078366;28;20540;-43
2023/05/15 07:08:14;;;;;;;2.58;1.17;;;;;;;14.86;77.82;101370.88;5071932;28;20111;-45
2023/05/15 07:10:40;;;;;;;2.15;1.30;;;;;;;14.88;78.23;101369.63;5072170;28;20408;-43
2023/05/15 07:13:07;;;;;;;4.53;1.45;;;;;;;14.93;77.69;101367.06;5071406;28;20029;-43
2023/05/15 07:15:33;;;;;;;4.18;1.33;;;;;;;14.88;78.19;101361.53;5072101;28;20089;-43
2023/05/15 07:17:59;;;;;;;2.15;1.27;;;;;;;14.82;78.37;101367.78;5072532;28;20500;-43
2023/05/15 07:20:25;;;;;;;1.77;1.08;;;;;;;14.81;78.44;101373.41;5072001;28;20031;-43
2023/05/15 07:22:51;;;;;;;3.33;1.30;;;;;;;14.82;77.78;101370.47;5071517;28;20020;-43
2023/05/15 07:25:18;;;;;;;2.08;1.42;;;;;;;14.88;77.46;101379.56;5072253;28;20370;-43
2023/05/15 07:27:44;;;;;;;1.83;1.23;;;;;;;14.77;77.95;101376.56;5071958;28;20036;-43
2023/05/15 07:30:10;;;;;;;1.73;1.20;;;;;;;14.83;77.89;101379.41;5074097;28;20131;-43
2023/05/15 07:32:37;;;;;;;2.40;1.40;;;;;;;14.93;77.11;101374.31;5071201;28;20024;-43
2023/05/15 07:35:04;;;;;;;2.70;1.27;;;;;;;14.95;77.34;101372.25;5071736;28;20032;-43
2023/05/15 07:37:30;;;;;;;1.52;1.40;;;;;;;15.03;77.30;101385.44;5072132;28;20048;-46
2023/05/15 07:39:57;;;;;;;4.03;1.27;;;;;;;14.99;77.06;101385.06;5083379;28;20028;-43
2023/05/15 07:42:24;;;;;;;2.33;1.27;;;;;;;14.84;78.08;101391.84;5091626;28;20111;-42
2023/05/15 07:44:50;;;;;;;2.58;1.00;;;;;;;14.93;77.79;101391.31;5091624;28;20392;-43
2023/05/15 07:47:17;;;;;;;2.60;1.20;;;;;;;14.91;77.76;101398.00;5073214;28;20090;-45
2023/05/15 07:49:43;;;;;;;3.83;1.50;;;;;;;14.83;77.88;101391.03;5070571;28;20021;-46
2023/05/15 07:52:09;;;;;;;1.95;1.35;;;;;;;14.87;77.49;101394.06;5069443;28;20411;-43
2023/05/15 07:54:35;;;;;;;3.38;1.52;;;;;;;14.78;78.24;101399.75;5071342;28;20052;-43
2023/05/15 07:57:02;;;;;;;1.98;0.98;;;;;;;14.67;78.81;101407.72;5070091;28;20523;-42
2023/05/15 07:59:29;;;;;;;3.08;1.38;;;;;;;14.50;79.75;101405.56;5071503;28;20020;-43
2023/05/15 08:01:56;;;;;;;1.20;1.10;;;;;;;14.57;79.28;101402.81;5071288;28;20077;-44
2023/05/15 08:04:22;;;;;;;2.00;1.45;;;;;;;14.50;80.23;101408.25;5071525;28;20099;-42
2023/05/15 08:06:48;;;;;;;2.00;0.90;;;;;;;14.43;80.59;101401.22;5071588;28;20035;-42
2023/05/15 08:09:14;;;;;;;2.47;1.30;;;;;;;14.51;79.79;101406.41;5070761;28;20021;-42
2023/05/15 08:11:41;;;;;;;2.33;1.10;;;;;;;14.52;79.50;101410.72;5071492;28;20079;-43
2023/05/15 08:14:07;;;;;;;1.52;1.10;;;;;;;14.36;80.28;101422.00;5071525;28;20062;-42
2023/05/15 08:16:33;;;;;;;1.92;1.05;;;;;;;14.36;80.38;101413.91;5071349;28;20028;-42
2023/05/15 08:19:03;;;;;;;5.20;1.35;;;;;;;14.29;80.79;101413.97;5068545;28;20044;-42
2023/05/15 08:21:30;;;;;;;2.45;1.35;;;;;;;14.30;81.00;101417.47;5086394;28;20453;-43
2023/05/15 08:23:58;;;;;;;1.75;0.90;;;;;;;14.34;80.93;101413.31;5077863;22;20052;-42
2023/05/15 08:26:24;;;;;;;2.42;1.20;;;;;;;14.25;81.54;101415.44;5071200;28;20021;-42
2023/05/15 08:28:50;;;;;;;4.28;1.17;;;;;;;14.30;81.45;101404.84;5069279;28;20122;-42
2023/05/15 08:31:17;;;;;;;1.10;0.90;;;;;;;14.29;81.23;101411.28;5070924;28;20135;-42
2023/05/15 08:33:43;;;;;;;1.98;1.10;;;;;;;14.29;81.00;101408.56;5071401;28;20025;-44
2023/05/15 08:36:09;;;;;;;2.10;1.10;;;;;;;14.20;82.01;101407.16;5071121;28;20137;-43
2023/05/15 08:38:36;;;;;;;1.63;1.00;;;;;;;14.29;81.69;101411.28;5070224;28;20051;-43
2023/05/15 08:41:10;;;;;;;3.35;1.20;;;;;;;14.31;81.21;101409.16;5060646;28;20052;-43
2023/05/15 08:43:38;;;;;;;1.65;1.10;;;;;;;14.42;80.04;101396.88;5050552;28;20114;-45
2023/05/15 08:46:06;;;;;;;1.33;0.93;;;;;;;14.29;80.74;101403.19;5053973;28;20051;-44
2023/05/15 08:48:37;;;;;;;1.67;1.30;;;;;;;14.33;80.25;101407.09;5054492;28;20025;-46
2023/05/15 08:51:08;;;;;;;2.47;0.80;;;;;;;14.49;78.98;101398.53;5071980;28;20374;-44
2023/05/15 08:53:34;;;;;;;2.25;1.10;;;;;;;14.49;79.31;101400.38;5072760;28;20032;-43
2023/05/15 08:56:01;;;;;;;2.50;0.98;;;;;;;14.25;80.37;101404.66;5074990;28;20056;-44
2023/05/15 08:58:28;;;;;;;1.33;1.00;;;;;;;14.29;80.34;101402.38;5074596;28;20035;-45
2023/05/15 09:00:56;;;;;;;2.45;1.27;;;;;;;14.23;80.76;101404.06;5056280;28;20094;-43
2023/05/15 09:03:23;;;;;;;2.38;1.10;;;;;;;14.22;80.52;101400.53;5069463;28;20032;-44
2023/05/15 09:05:54;;;;;;;1.33;0.90;;;;;;;14.29;79.80;101389.72;5071617;28;20036;-43
2023/05/15 09:08:22;;;;;;;2.13;1.10;;;;;;;14.19;80.89;101395.56;5054577;28;20021;-43
2023/05/15 09:10:51;;;;;;;2.90;1.40;;;;;;;14.23;80.66;101395.97;5054285;28;20033;-44
2023/05/15 09:13:18;;;;;;;2.60;1.30;;;;;;;14.23;80.54;101391.41;5054256;28;20032;-42
2023/05/15 09:15:48;;;;;;;1.40;1.25;;;;;;;14.31;80.07;101393.03;5053825;28;20025;-44
2023/05/15 09:18:15;;;;;;;1.80;1.10;;;;;;;14.18;80.38;101402.00;5054425;28;20504;-42
2023/05/15 09:20:42;;;;;;;2.75;1.20;;;;;;;14.25;79.70;101400.09;5053776;28;20033;-42
2023/05/15 09:23:23;;;;;;;3.25;1.25;;;;;;;14.17;80.28;101399.53;5053681;28;20041;-43
2023/05/15 09:25:52;;;;;;;2.35;1.10;;;;;;;14.20;79.97;101408.00;5067041;28;20476;-42
2023/05/15 09:28:32;;;;;;;1.95;1.05;;;;;;;14.04;80.35;101411.19;5074082;28;20024;-43
2023/05/15 09:31:01;;;;;;;1.92;1.23;;;;;;;14.09;80.54;101405.97;5066080;28;20032;-42
2023/05/15 09:33:29;;;;;;;1.35;1.00;;;;;;;14.08;80.39;101406.22;5073597;28;20032;-44
2023/05/15 09:35:55;;;;;;;1.63;0.98;;;;;;;14.13;80.47;101409.09;5066632;28;20551;-42
2023/05/15 09:38:21;;;;;;;2.40;1.10;;;;;;;14.13;80.60;101411.78;5053881;28;20058;-42
2023/05/15 09:40:48;;;;;;;1.75;1.08;;;;;;;14.15;80.62;101407.00;5053778;28;20075;-43
2023/05/15 09:43:15;;;;;;;1.60;0.82;;;;;;;14.12;80.45;101404.75;5053577;28;20040;-48
2023/05/15 09:45:41;;;;;;;2.03;1.17;;;;;;;14.11;80.33;101405.78;5058744;28;20029;-47
2023/05/15 09:48:10;;;;;;;1.73;1.00;;;;;;;14.22;79.45;101399.72;5067224;28;20504;-48
2023/05/15 09:50:38;;;;;;;1.50;0.80;;;;;;;14.22;79.76;101402.41;5052570;28;20097;-45
2023/05/15 09:53:05;;;;;;;1.55;0.65;;;;;;;14.22;79.77;101402.41;5053453;28;20036;-43
2023/05/15 09:55:35;;;;;;;1.67;0.70;;;;;;;14.18;79.81;101396.63;5053338;28;20237;-45
2023/05/15 09:58:15;;;;;;;1.60;0.75;;;;;;;14.30;79.36;101404.84;5073012;28;20168;-44
2023/05/15 10:00:42;;;;;;;1.67;1.10;;;;;;;14.19;79.80;101405.53;5073248;28;20104;-43
2023/05/15 10:03:10;;;;;;;2.38;1.00;;;;;;;14.21;79.78;101398.03;5071589;28;20105;-43
2023/05/15 10:05:38;;;;;;;2.03;1.20;;;;;;;14.08;80.28;101401.66;5073304;28;20031;-44
2023/05/15 10:08:04;;;;;;;2.15;1.05;;;;;;;14.18;79.39;101407.41;5054000;28;20112;-43
2023/05/15 10:10:31;;;;;;;1.15;1.05;;;;;;;14.16;79.53;101409.50;5053087;28;20147;-43
2023/05/15 10:13:04;;;;;;;0.80;0.80;;;;;;;14.23;78.60;101402.19;5064513;28;20040;-44
2023/05/15 10:15:31;;;;;;;1.83;1.20;;;;;;;14.23;78.75;101407.56;5073217;28;20458;-45
2023/05/15 10:17:58;;;;;;;2.05;1.40;;;;;;;14.26;79.07;101411.69;5071082;28;20112;-42
2023/05/15 10:20:25;;;;;;;1.80;1.20;;;;;;;14.19;79.62;101400.13;5072739;28;20089;-49
2023/05/15 10:22:54;;;;;;;3.22;1.27;;;;;;;14.13;79.81;101409.09;5054653;28;20040;-49
2023/05/15 10:26:14;;;;;;;1.40;1.30;;;;;;;14.23;79.42;101404.06;5071999;28;20103;-49
2023/05/15 10:28:42;;;;;;;3.72;1.10;;;;;;;14.21;79.34;101401.59;5016100;28;20143;-49
2023/05/15 10:31:10;;;;;;;2.17;1.27;;;;;;;14.19;79.44;101402.84;5059879;28;20032;-48
2023/05/15 10:33:38;;;;;;;2.45;1.30;;;;;;;13.99;80.98;101394.84;5072565;28;20082;-47
2023/05/15 10:36:05;;;;;;;2.75;1.60;;;;;;;14.11;80.49;101403.91;5072479;28;20032;-43
2023/05/15 10:38:33;;;;;;;1.67;1.20;;;;;;;14.27;79.60;101402.59;5071957;28;20089;-44
2023/05/15 10:40:59;;;;;;;1.83;1.23;;;;;;;14.29;79.87;101408.56;5072270;28;20074;-43
2023/05/15 10:43:27;;;;;;;3.40;1.35;;;;;;;14.31;79.43;101400.28;5072246;28;20020;-43
2023/05/15 10:45:55;;;;;;;1.95;1.30;;;;;;;14.34;78.98;101411.44;5072451;28;20024;-42
2023/05/15 10:48:23;;;;;;;1.70;1.20;;;;;;;14.31;79.10;101406.47;5072571;28;20484;-45
2023/05/15 10:50:49;;;;;;;1.73;1.05;;;;;;;14.46;78.03;101406.19;5073214;28;20021;-46
2023/05/15 10:53:16;;;;;;;1.20;1.00;;;;;;;14.39;78.33;101417.00;5071049;28;20028;-42
2023/05/15 10:55:44;;;;;;;1.80;1.10;;;;;;;14.45;77.79;101413.44;5072392;28;20115;-42
2023/05/15 10:58:11;;;;;;;1.20;0.88;;;;;;;14.46;77.77;101415.09;5071269;28;20081;-42
2023/05/15 11:00:44;;;;;;;2.08;1.05;;;;;;;14.47;77.68;101413.25;5072169;28;20025;-45
2023/05/15 11:03:14;;;;;;;2.78;0.90;;;;;;;14.52;76.41;101426.91;5072103;28;20047;-43
2023/05/15 11:06:11;;;;;;;2.13;0.95;;;;;;;14.48;77.57;101423.81;5072156;28;20025;-43
2023/05/15 11:08:39;;;;;;;1.38;1.08;;;;;;;14.53;77.07;101428.53;5024221;28;20047;-41
2023/05/15 11:11:06;;;;;;;1.20;0.80;;;;;;;14.61;77.21;101430.16;5054211;28;20428;-44
2023/05/15 11:14:20;;;;;;;1.67;1.27;;;;;;;14.50;77.43;101429.00;5051397;28;20450;-42
2023/05/15 11:16:53;;;;;;;2.25;0.80;;;;;;;14.54;77.50;101430.19;5037351;28;20554;-44
2023/05/15 11:19:35;;;;;;;1.48;1.13;;;;;;;14.56;77.27;101438.06;5056106;28;20436;-42
2023/05/15 11:22:19;;;;;;;2.60;0.90;;;;;;;14.46;77.48;101443.91;5069896;28;20051;-41
2023/05/15 11:25:07;;;;;;;1.58;0.73;;;;;;;14.47;77.44;101446.41;5052190;28;20116;-42
2023/05/15 11:27:36;;;;;;;0.80;0.70;;;;;;;14.43;77.06;101453.22;5051879;28;20029;-42
2023/05/15 11:30:16;;;;;;;0.52;0.50;;;;;;;14.47;76.30;101445.56;5054931;28;20059;-42